Nearby METAR Reports

 

KAPA - Denver/Arapahoe, Colorado, USA
Distance from station: W 7mi, 11km
Updated: Sat, 25-May-2024 6:53pm MDT
Mostly cloudy
Mostly cloudy
 Wind from ENE
Wind: ENE 14 mph , 22 km/h, Gust: 21 mph , 33 km/h
Temperature: 63°F , 17°C
Dew Point: 37°F , 3°C
Humidity: 39%
Barometer: 29.73 inHg , 1006.8 hPa
Clouds: Mostly cloudy
Visibility: 10 miles , 16 km
Cloud details: Partly cloudy 9000 ft
Mostly cloudy 14000 ft
Mostly cloudy 22000 ft
2024/05/26 00:53 KAPA 260053Z 06012G18KT 10SM SCT090 BKN140 BKN220 17/03 A2973 RMK AO2 SLP022 VIRGA NW-N T01670028
KBKF - Buckley Angb/Den, Colorado, USA
Distance from station: N 11mi, 17km
Updated: Sat, 25-May-2024 6:58pm MDT
Mostly cloudy
Mostly cloudy
 Wind from NE
Wind: NE 10 mph , 17 km/h
Temperature: 63°F , 17°C
Dew Point: 39°F , 4°C
Humidity: 42%
Barometer: 29.72 inHg , 1006.4 hPa
Clouds: Mostly cloudy
Visibility: 10 miles , 16 km
Cloud details: Partly cloudy 8000 ft
Mostly cloudy 14000 ft
Mostly cloudy 22000 ft
2024/05/26 00:58 KBKF 260058Z 04009KT 10SM SCT080 BKN140 BKN220 17/04 A2972 RMK AO2A SLP014 T01710039
 
KCFO - Denver Space Por, Colorado, USA
Distance from station: NNE 18mi, 29km
Updated: Sat, 25-May-2024 6:47pm MDT
Partly cloudy
Partly cloudy
 Wind from NE
Wind: NE 13 mph , 20 km/h
Temperature: 64°F , 18°C
Dew Point: 39°F , 4°C
Humidity: 40%
Barometer: 29.73 inHg , 1006.8 hPa
Clouds: Partly cloudy
Visibility: 10 miles , 16 km
Cloud details: Partly cloudy 12000 ft
2024/05/26 00:47 KCFO 260047Z 05011KT 10SM SCT120 18/04 A2973
KDEN - Denver (dia), Colorado, USA
Distance from station: N 20mi, 32km
Updated: Sat, 25-May-2024 6:53pm MDT
Mostly cloudy
Mostly cloudy
 Wind from NE
Wind: NE 12 mph , 19 km/h
Temperature: 63°F , 17°C
Dew Point: 41°F , 5°C
Humidity: 45%
Barometer: 29.72 inHg , 1006.4 hPa
Clouds: Mostly cloudy
Visibility: 10 miles , 16 km
Cloud details: Partly cloudy 10000 ft
Mostly cloudy 14000 ft
Mostly cloudy 22000 ft
2024/05/26 00:53 KDEN 260053Z 05010KT 10SM SCT100 BKN140 BKN220 17/05 A2972 RMK AO2 SLP007 VIRGA W T01720050
 
KBJC - Broomfield/Jeffc, Colorado, USA
Distance from station: NW 31mi, 49km
Updated: Sat, 25-May-2024 6:45pm MDT
Mostly cloudy
Mostly cloudy
 Wind from NNE
Wind: NNE 17 mph , 28 km/h
Temperature: 64°F , 18°C
Dew Point: 36°F , 2°C
Humidity: 34%
Barometer: 29.72 inHg , 1006.4 hPa
Clouds: Mostly cloudy
Visibility: 10 miles , 16 km
Cloud details: Mostly cloudy 8000 ft
2024/05/26 00:45 KBJC 260045Z 02015KT 10SM BKN080 18/02 A2972
KEIK - Erie Muni, Colorado, USA
Distance from station: NNW 36mi, 58km
Updated: Sat, 25-May-2024 7:15pm MDT
Mostly cloudy
Mostly cloudy
 Wind from NNE
Wind: NNE 6 mph , 9 km/h
Temperature: 61°F , 16°C
Dew Point: 43°F , 6°C
Humidity: 52%
Barometer: 29.73 inHg , 1006.8 hPa
Clouds: Mostly cloudy
Visibility: 9 miles , 14 km
Cloud details: Partly cloudy 10000 ft
Mostly cloudy 13000 ft
2024/05/26 01:15 KEIK 260115Z AUTO 03005KT 9SM SCT100 BKN130 16/06 A2973 RMK AO2 LTG DSNT SW RAB0102E0115 P0000 T01590060 $
 
KAFF - Usaf Academy/Cos, Colorado, USA
Distance from station: S 42mi, 67km
Updated: Sat, 25-May-2024 7:37pm MDT
Mostly cloudy
Mostly cloudy
 Wind from W
Wind: W 12 mph , 19 km/h
Temperature: 68°F , 20°C
Dew Point: 19°F , -7°C
Humidity: 16%
Barometer: 29.75 inHg , 1007.5 hPa
Clouds: Mostly cloudy
Visibility: 10 miles , 16 km
Cloud details: Partly cloudy 10000 ft
Mostly cloudy 12000 ft
2024/05/26 01:37 KAFF 260137Z AUTO 28010KT 10SM SCT100 BKN120 20/M07 A2975 RMK AO2 WSHFT 32 SLP001
KBDU - Boulder Muni, Colorado, USA
Distance from station: NW 42mi, 68km
Updated: Sat, 25-May-2024 7:35pm MDT
Light rain, Overcast
Light rain, Overcast
 Wind from W
Wind: W 6 mph , 9 km/h
Temperature: 59°F , 15°C
Dew Point: 37°F , 3°C
Humidity: 45%
Barometer: 29.79 inHg , 1008.8 hPa
Summary: Light rain
Clouds: Overcast
Visibility: 10 miles , 16 km
Cloud details: Partly cloudy 7000 ft
Mostly cloudy 9500 ft
Overcast 12000 ft
2024/05/26 01:35 KBDU 260135Z AUTO 28005KT 10SM -RA SCT070 BKN095 OVC120 15/03 A2979 RMK AO2
 
KFLY - Co Spngs Meadow, Colorado, USA
Distance from station: SSE 43mi, 70km
Updated: Sat, 25-May-2024 7:35pm MDT
Partly cloudy
Partly cloudy
 Wind from NNE
Wind: NNE 16 mph , 26 km/h, Gust: 33 mph , 54 km/h
Temperature: 59°F , 15°C
Dew Point: 37°F , 3°C
Humidity: 45%
Barometer: 29.82 inHg , 1009.8 hPa
Clouds: Partly cloudy
Visibility: 10 miles , 16 km
Cloud details: Partly cloudy 12000 ft
2024/05/26 01:35 KFLY 260135Z AUTO 03014G29KT 10SM SCT120 15/03 A2982 RMK AO2 T01450026
KLMO - Longmont/Vbrand, Colorado, USA
Distance from station: NNW 48mi, 77km
Updated: Sat, 25-May-2024 7:15pm MDT
Mostly cloudy
Mostly cloudy
 Wind from N
Wind: N 5 mph , 7 km/h
Temperature: 61°F , 16°C
Dew Point: 41°F , 5°C
Humidity: 48%
Barometer: 29.77 inHg , 1008.1 hPa
Clouds: Mostly cloudy
Visibility: 7 miles , 11 km
Cloud details: Mostly cloudy 11000 ft
2024/05/26 01:15 KLMO 260115Z AUTO 36004KT 7SM BKN110 16/05 A2977 RMK AO2 T01600045
 
KCOS - Colorado Springs, Colorado, USA
Distance from station: S 52mi, 83km
Updated: Sat, 25-May-2024 6:54pm MDT
Mostly cloudy
Mostly cloudy
 Wind from NW
Wind: NW 13 mph , 20 km/h, Gust: 22 mph , 35 km/h
Temperature: 72°F , 22°C
Dew Point: 27°F , -3°C
Humidity: 19%
Barometer: 29.73 inHg , 1006.8 hPa
Clouds: Mostly cloudy
Visibility: 10 miles , 16 km
Cloud details: Partly cloudy 12000 ft
Mostly cloudy 16000 ft
Mostly cloudy 25000 ft
2024/05/26 00:54 KCOS 260054Z 31011G19KT 10SM SCT120 BKN160 BKN250 22/M03 A2973 RMK AO2 SLP997 T02221028
KSHM - Schriever Afb, Colorado, USA
Distance from station: SSE 54mi, 87km
Updated: Sat, 25-May-2024 6:55pm MDT
Mostly cloudy
Mostly cloudy
 Wind from N
Wind: N 10 mph , 17 km/h, Gust: 26 mph , 43 km/h
Temperature: 70°F , 21°C
Dew Point: 28°F , -2°C
Humidity: 21%
Barometer: 29.71 inHg , 1006.1 hPa
Clouds: Mostly cloudy
Visibility: 10 miles , 16 km
Cloud details: Mostly cloudy 12000 ft
Mostly cloudy 14000 ft
2024/05/26 00:55 KSHM 260055Z AUTO 35009G23KT 10SM BKN120 BKN140 21/M02 A2971 RMK AO2 SLP001 T02091023 $
 
K4BM - Wilkerson Pass, Colorado, USA
Distance from station: SW 55mi, 89km
Updated: Sat, 25-May-2024 7:35pm MDT
Clear
Clear
 Wind from SSE
Wind: SSE 13 mph , 20 km/h, Gust: 23 mph , 37 km/h
Temperature: 43°F , 6°C
Wind Chill: 36°F , 2°C
Dew Point: 21°F , -6°C
Humidity: 42%
Barometer: 30.05 inHg , 1017.6 hPa
Clouds: Clear
Visibility: 10 miles , 16 km
2024/05/26 01:35 K4BM 260135Z AUTO 16011G20KT 10SM CLR 06/M06 A3005 RMK AO2
KCWN - Cheyenne Mtn, Colorado, USA
Distance from station: S 57mi, 91km
Updated: Sat, 25-May-2024 6:55pm MDT
Few Clouds
Few Clouds
 Wind from NNW
Wind: NNW 10 mph , 17 km/h, Gust: 20 mph , 31 km/h
Temperature: 66°F , 19°C
Dew Point: 21°F , -6°C
Humidity: 18%
Barometer: 29.74 inHg , 1007.1 hPa
Clouds: Few Clouds
Visibility: 10 miles , 16 km
Cloud details: Few Clouds 10000 ft
2024/05/26 00:55 KCWN 260055Z AUTO 33009G17KT 10SM FEW100 19/M06 A2974 RMK AO2 SLP912 T01871061 $
 
K0CO - Berthoud Pass, Colorado, USA
Distance from station: WNW 58mi, 93km
Updated: Sat, 25-May-2024 7:35pm MDT
Overcast
Overcast
 Wind from NW
Wind: NW 28 mph , 44 km/h, Gust: 37 mph , 59 km/h
Temperature: 27°F , -3°C
Wind Chill: 11°F , -12°C
Dew Point: 25°F , -4°C
Humidity: 93%
Barometer: 30.05 inHg , 1017.6 hPa
Clouds: Overcast
Cloud details: Mostly cloudy 200 ft
Mostly cloudy 700 ft
Overcast 1300 ft
2024/05/26 01:35 K0CO 260135Z AUTO 31024G32KT BKN002 BKN007 OVC013 M03/M04 A3005 RMK AO2 PWINO
KGXY - Greeley/Weld, Colorado, USA
Distance from station: N 59mi, 95km
Updated: Sat, 25-May-2024 6:56pm MDT
Clear
Clear
 Wind from N
Wind: N 12 mph , 19 km/h
Temperature: 63°F , 17°C
Dew Point: 43°F , 6°C
Humidity: 49%
Barometer: 29.71 inHg , 1006.1 hPa
Clouds: Clear
Visibility: 10 miles , 16 km
2024/05/26 00:56 KGXY 260056Z 01010KT 10SM CLR 17/06 A2971 RMK AO2 SLP041 T01670056
 
KABH - Ellicott-B Afa, Colorado, USA
Distance from station: SSE 60mi, 96km
Updated: Sat, 25-May-2024 6:55pm MDT
Overcast
Overcast
 Wind from NNE
Wind: NNE 26 mph , 43 km/h, Gust: 35 mph , 56 km/h
Temperature: 64°F , 18°C
Dew Point: 37°F , 3°C
Humidity: 37%
Barometer: 29.72 inHg , 1006.4 hPa
Clouds: Overcast
Visibility: 10 miles , 16 km
Cloud details: Mostly cloudy 11000 ft
Overcast 13000 ft
2024/05/26 00:55 KABH 260055Z AUTO 03023G30KT 10SM BKN110 OVC130 18/03 A2972 RMK AO2 PK WND 02030/51 SLP014 T01800031
KLIC - Limon, Colorado, USA
Distance from station: ESE 60mi, 97km
Updated: Sat, 25-May-2024 7:08pm MDT
Partly cloudy
Partly cloudy
 Wind from N
Wind: N 15 mph , 24 km/h, Gust: 24 mph , 39 km/h
Temperature: 63°F , 17°C
Dew Point: 43°F , 6°C
Humidity: 49%
Barometer: 29.70 inHg , 1005.8 hPa
Clouds: Partly cloudy
Visibility: 10 miles , 16 km
Cloud details: Partly cloudy 4600 ft
Partly cloudy 5500 ft
2024/05/26 01:08 KLIC 260108Z AUTO 01013G21KT 10SM SCT046 SCT055 17/06 A2970 RMK AO2 PK WND 01030/0057 WSHFT 0048 RAE08 P0000 T01720056 $
 
KFCS - Fort Carson, Colorado, USA
Distance from station: S 62mi, 100km
Updated: Sat, 25-May-2024 6:55pm MDT
Mostly cloudy
Mostly cloudy
 Wind from WSW
Wind: WSW 7 mph , 11 km/h
Temperature: 73°F , 23°C
Dew Point: 19°F , -7°C
Humidity: 13%
Barometer: 29.67 inHg , 1004.7 hPa
Clouds: Mostly cloudy
Visibility: 10 miles , 16 km
Cloud details: Partly cloudy 13000 ft
Mostly cloudy 15000 ft
2024/05/26 00:55 KFCS 260055Z AUTO 25006KT 10SM SCT130 BKN150 23/M07 A2967 RMK AO2 SLP002 T02281071 $
KFNL - Ft Collins/Lovel, Colorado, USA
Distance from station: NNW 63mi, 102km
Updated: Sat, 25-May-2024 6:56pm MDT
Partly cloudy
Partly cloudy
 Wind from NW
Wind: NW 5 mph , 7 km/h
Temperature: 57°F , 14°C
Dew Point: 45°F , 7°C
Humidity: 63%
Barometer: 29.74 inHg , 1007.1 hPa
Clouds: Partly cloudy
Visibility: 10 miles , 16 km
Cloud details: Partly cloudy 11000 ft
2024/05/26 00:56 KFNL 260056Z 32004KT 10SM SCT110 14/07 A2974 RMK AO2 SLP036 T01440067 $